createdAt,value
2018-08-22T00:01:03.405Z,3.00
2018-08-22T00:03:31.271Z,3.47
2018-08-22T00:05:59.103Z,3.17
2018-08-22T00:08:32.571Z,3.40
2018-08-22T00:11:00.409Z,3.13
2018-08-22T00:13:28.488Z,3.13
2018-08-22T00:15:56.529Z,2.90
2018-08-22T00:18:24.372Z,3.30
2018-08-22T00:20:52.324Z,2.90
2018-08-22T00:23:20.233Z,3.50
2018-08-22T00:25:48.068Z,3.20
2018-08-22T00:28:16.138Z,3.10
2018-08-22T00:30:44.090Z,2.97
2018-08-22T00:33:12.064Z,3.50
2018-08-22T00:35:40.082Z,3.40
2018-08-22T00:38:07.961Z,3.17
2018-08-22T00:40:35.839Z,3.27
2018-08-22T00:43:03.680Z,3.43
2018-08-22T00:45:31.598Z,3.23
2018-08-22T00:47:59.470Z,3.40
2018-08-22T00:50:27.320Z,3.27
2018-08-22T00:52:55.285Z,3.37
2018-08-22T00:55:23.132Z,2.77
2018-08-22T00:57:51.120Z,3.33
2018-08-22T01:00:19.004Z,3.07
2018-08-22T01:02:46.800Z,3.13
2018-08-22T01:05:14.734Z,3.27
2018-08-22T01:07:42.661Z,3.27
2018-08-22T01:10:10.581Z,3.27
2018-08-22T01:12:38.735Z,3.40
2018-08-22T01:15:06.770Z,2.93
2018-08-22T01:17:34.846Z,2.90
2018-08-22T01:20:02.727Z,3.30
2018-08-22T01:22:30.624Z,3.40
2018-08-22T01:24:58.530Z,3.00
2018-08-22T01:27:26.388Z,3.30
2018-08-22T01:29:54.960Z,3.20
2018-08-22T01:32:23.395Z,3.63
2018-08-22T01:34:52.091Z,3.30
2018-08-22T01:37:19.960Z,2.73
2018-08-22T01:39:48.371Z,3.33
2018-08-22T01:42:16.597Z,3.43
2018-08-22T01:44:44.759Z,3.27
2018-08-22T01:47:12.629Z,3.47
2018-08-22T01:49:40.521Z,3.57
2018-08-22T01:52:08.522Z,3.00
2018-08-22T01:54:36.317Z,3.27
2018-08-22T01:57:04.325Z,3.90
2018-08-22T01:59:32.196Z,3.50
2018-08-22T02:02:00.066Z,3.27
2018-08-22T02:04:27.946Z,3.50
2018-08-22T02:06:55.817Z,3.33
2018-08-22T02:09:23.737Z,3.70
2018-08-22T02:11:51.575Z,3.60
2018-08-22T02:14:19.525Z,3.40
2018-08-22T02:16:47.458Z,3.40
2018-08-22T02:19:15.332Z,3.80
2018-08-22T02:21:43.229Z,3.10
2018-08-22T02:24:11.069Z,3.50
2018-08-22T02:26:38.936Z,3.50
2018-08-22T02:29:06.745Z,3.50
2018-08-22T02:31:34.644Z,3.90
2018-08-22T02:34:02.542Z,4.05
2018-08-22T02:36:30.421Z,4.00
2018-08-22T02:38:58.253Z,3.43
2018-08-22T02:41:26.101Z,3.80
2018-08-22T02:43:53.998Z,3.30
2018-08-22T02:46:21.829Z,3.83
2018-08-22T02:48:55.749Z,3.50
2018-08-22T02:51:23.981Z,4.00
2018-08-22T02:53:52.025Z,3.97
2018-08-22T02:56:19.974Z,4.30
2018-08-22T02:58:47.927Z,4.07
2018-08-22T03:01:15.761Z,3.30
2018-08-22T03:03:43.621Z,4.13
2018-08-22T03:06:11.500Z,3.47
2018-08-22T03:08:39.293Z,4.30
2018-08-22T03:11:07.128Z,3.80
2018-08-22T03:13:35.032Z,3.57
2018-08-22T03:16:02.914Z,3.93
2018-08-22T03:18:30.733Z,3.20
2018-08-22T03:21:00.196Z,3.83
2018-08-22T03:23:28.266Z,7.73
2018-08-22T03:25:56.090Z,4.17
2018-08-22T03:28:23.921Z,4.03
2018-08-22T03:30:52.765Z,3.87
2018-08-22T03:33:20.560Z,4.10
2018-08-22T03:35:48.390Z,4.00
2018-08-22T03:38:17.324Z,4.00
2018-08-22T03:40:46.197Z,3.97
2018-08-22T03:43:13.976Z,4.00
2018-08-22T03:45:41.839Z,3.90
2018-08-22T03:48:09.726Z,4.20
2018-08-22T03:50:37.528Z,4.35
2018-08-22T03:53:05.360Z,4.13
2018-08-22T03:55:33.217Z,4.07
2018-08-22T03:58:01.103Z,4.37
2018-08-22T04:00:28.958Z,4.67
2018-08-22T04:02:56.867Z,4.50
2018-08-22T04:05:24.764Z,4.13
2018-08-22T04:07:52.624Z,4.13
2018-08-22T04:10:20.440Z,4.63
2018-08-22T04:12:48.294Z,4.40
2018-08-22T04:15:16.149Z,3.87
2018-08-22T04:17:43.974Z,4.37
2018-08-22T04:20:11.911Z,4.33
2018-08-22T04:22:40.610Z,4.53
2018-08-22T04:25:09.023Z,4.07
2018-08-22T04:27:37.947Z,4.93
2018-08-22T04:30:05.942Z,5.10
2018-08-22T04:32:33.899Z,4.37
2018-08-22T04:35:01.870Z,4.23
2018-08-22T04:37:29.848Z,4.20
2018-08-22T04:39:57.807Z,4.53
2018-08-22T04:42:25.720Z,4.10
2018-08-22T04:44:53.592Z,4.07
2018-08-22T04:47:21.483Z,4.57
2018-08-22T04:49:49.346Z,4.40
2018-08-22T04:52:18.215Z,4.77
2018-08-22T04:54:46.081Z,4.17
2018-08-22T04:57:14.047Z,4.30
2018-08-22T04:59:41.868Z,4.10
2018-08-22T05:02:09.830Z,4.33
2018-08-22T05:04:37.734Z,4.90
2018-08-22T05:07:05.663Z,4.30
2018-08-22T05:09:33.577Z,4.43
2018-08-22T05:12:01.453Z,4.30
2018-08-22T05:14:29.413Z,4.70
2018-08-22T05:16:57.550Z,4.20
2018-08-22T05:19:25.472Z,3.87
2018-08-22T05:21:53.402Z,4.27
2018-08-22T05:24:21.379Z,4.50
2018-08-22T05:26:49.257Z,5.10
2018-08-22T05:29:17.145Z,4.97
2018-08-22T05:31:45.034Z,4.43
2018-08-22T05:34:13.857Z,4.27
2018-08-22T05:36:41.736Z,4.53
2018-08-22T05:39:11.353Z,4.53
2018-08-22T05:41:39.241Z,4.77
2018-08-22T05:44:07.174Z,4.37
2018-08-22T05:46:35.169Z,4.13
2018-08-22T05:49:03.041Z,4.53
2018-08-22T05:51:31.000Z,4.40
2018-08-22T05:53:58.942Z,4.80
2018-08-22T05:56:26.829Z,4.87
2018-08-22T05:58:54.771Z,5.10
2018-08-22T06:01:22.585Z,4.83
2018-08-22T06:03:50.423Z,4.67
2018-08-22T06:06:18.289Z,4.73
2018-08-22T06:08:46.150Z,5.10
2018-08-22T06:11:14.016Z,4.60
2018-08-22T06:13:41.832Z,5.17
2018-08-22T06:16:09.693Z,4.87
2018-08-22T06:18:37.500Z,5.53
2018-08-22T06:21:05.365Z,5.43
2018-08-22T06:23:33.243Z,5.00
2018-08-22T06:26:01.091Z,4.90
2018-08-22T06:28:28.935Z,4.63
2018-08-22T06:30:56.769Z,4.67
2018-08-22T06:33:24.593Z,4.80
2018-08-22T06:35:52.436Z,4.70
2018-08-22T06:38:20.273Z,4.37
2018-08-22T06:40:48.080Z,4.30
2018-08-22T06:43:15.937Z,4.37
2018-08-22T06:45:43.827Z,4.60
2018-08-22T06:48:11.698Z,4.00
2018-08-22T06:50:39.811Z,4.45
2018-08-22T06:53:07.702Z,3.87
2018-08-22T06:55:35.582Z,3.97
2018-08-22T06:58:03.481Z,4.63
2018-08-22T07:00:31.285Z,3.87
2018-08-22T07:02:59.133Z,4.40
2018-08-22T07:05:27.086Z,4.10
2018-08-22T07:07:54.958Z,4.43
2018-08-22T07:10:22.869Z,3.93
2018-08-22T07:12:50.730Z,3.70
2018-08-22T07:15:18.544Z,4.20
2018-08-22T07:17:46.423Z,3.87
2018-08-22T07:20:14.285Z,3.80
2018-08-22T07:22:42.218Z,4.10
2018-08-22T07:25:10.081Z,3.60
2018-08-22T07:27:37.882Z,4.27
2018-08-22T07:30:05.859Z,4.03
2018-08-22T07:32:33.705Z,3.77
2018-08-22T07:35:01.601Z,3.90
2018-08-22T07:37:29.470Z,4.23
2018-08-22T07:39:57.337Z,3.90
2018-08-22T07:42:25.177Z,3.30
2018-08-22T07:44:53.043Z,4.00
2018-08-22T07:47:20.869Z,4.20
2018-08-22T07:49:48.746Z,4.10
2018-08-22T07:52:16.671Z,3.80
2018-08-22T07:54:45.525Z,3.90
2018-08-22T07:57:14.822Z,3.93
2018-08-22T07:59:42.651Z,4.07
2018-08-22T08:02:10.488Z,4.30
2018-08-22T08:04:38.330Z,3.73
2018-08-22T08:07:06.198Z,3.67
2018-08-22T08:09:34.135Z,3.53
2018-08-22T08:12:01.986Z,4.00
2018-08-22T08:14:29.837Z,3.67
2018-08-22T08:16:57.774Z,3.93
2018-08-22T08:19:25.567Z,3.50
2018-08-22T08:21:53.443Z,3.37
2018-08-22T08:24:21.317Z,3.37
2018-08-22T08:26:49.141Z,3.67
2018-08-22T08:29:17.014Z,3.40
2018-08-22T08:31:44.897Z,3.30
2018-08-22T08:34:12.839Z,3.30
2018-08-22T08:36:40.697Z,3.63
2018-08-22T08:39:09.581Z,4.67
2018-08-22T08:41:37.551Z,3.93
2018-08-22T08:44:05.426Z,3.73
2018-08-22T08:46:33.275Z,4.50
2018-08-22T08:49:01.219Z,3.97
2018-08-22T08:51:29.347Z,4.10
2018-08-22T08:53:57.258Z,4.40
2018-08-22T08:56:25.127Z,4.07
2018-08-22T08:58:53.004Z,3.17
2018-08-22T09:01:20.847Z,3.10
2018-08-22T09:03:48.732Z,3.50
2018-08-22T09:06:16.595Z,3.23
2018-08-22T09:08:44.482Z,3.20
2018-08-22T09:11:12.298Z,3.00
2018-08-22T09:13:47.478Z,3.43
2018-08-22T09:16:15.927Z,3.00
2018-08-22T09:18:44.085Z,2.30
2018-08-22T09:21:11.950Z,3.00
2018-08-22T09:23:39.842Z,2.90
2018-08-22T09:26:07.678Z,2.60
2018-08-22T09:28:35.542Z,2.40
2018-08-22T09:31:03.409Z,2.43
2018-08-22T09:33:31.233Z,2.57
2018-08-22T09:35:59.027Z,2.80
2018-08-22T09:38:26.940Z,2.50
2018-08-22T09:40:54.747Z,2.50
2018-08-22T09:43:22.569Z,2.50
2018-08-22T09:45:50.421Z,2.30
2018-08-22T09:48:18.330Z,2.70
2018-08-22T09:50:46.222Z,2.40
2018-08-22T09:53:14.074Z,2.53
2018-08-22T09:55:41.917Z,2.60
2018-08-22T09:58:09.744Z,2.40
2018-08-22T10:00:43.290Z,2.60
2018-08-22T10:03:11.140Z,2.47
2018-08-22T10:05:38.960Z,2.70
2018-08-22T10:08:06.825Z,2.57
2018-08-22T10:10:34.705Z,2.23
2018-08-22T10:13:02.541Z,2.20
2018-08-22T10:15:30.743Z,2.30
2018-08-22T10:17:58.639Z,2.17
2018-08-22T10:20:26.518Z,2.27
2018-08-22T10:22:54.443Z,2.50
2018-08-22T10:25:22.277Z,2.57
2018-08-22T10:27:50.121Z,2.60
2018-08-22T10:30:17.985Z,2.53
2018-08-22T10:32:45.851Z,2.20
2018-08-22T10:35:13.728Z,2.53
2018-08-22T10:37:41.581Z,2.40
2018-08-22T10:40:09.459Z,2.57
2018-08-22T10:42:37.297Z,2.40
2018-08-22T10:45:05.424Z,2.67
2018-08-22T10:47:33.212Z,2.80
2018-08-22T10:50:01.063Z,3.10
2018-08-22T10:52:28.956Z,2.27
2018-08-22T10:54:56.890Z,2.10
2018-08-22T10:57:24.797Z,1.90
2018-08-22T10:59:52.641Z,2.40
2018-08-22T11:02:20.595Z,2.20
2018-08-22T11:04:48.527Z,2.13
2018-08-22T11:07:16.419Z,2.50
2018-08-22T11:09:44.357Z,2.10
2018-08-22T11:12:12.214Z,2.43
2018-08-22T11:14:40.105Z,2.63
2018-08-22T11:17:08.171Z,2.30
2018-08-22T11:19:36.058Z,2.40
2018-08-22T11:22:09.750Z,2.57
2018-08-22T11:24:43.187Z,2.30
2018-08-22T11:27:16.811Z,2.00
2018-08-22T11:29:50.561Z,2.17
2018-08-22T11:32:23.977Z,2.20
2018-08-22T11:34:52.086Z,2.20
2018-08-22T11:37:20.125Z,2.20
2018-08-22T11:39:50.150Z,2.20
2018-08-22T11:42:18.648Z,2.60
2018-08-22T11:44:46.566Z,2.73
2018-08-22T11:47:14.471Z,3.00
2018-08-22T11:49:42.392Z,2.00
2018-08-22T11:52:10.341Z,2.17
2018-08-22T11:54:38.200Z,2.30
2018-08-22T11:57:06.107Z,2.30
2018-08-22T12:02:01.171Z,2.50
2018-08-22T12:04:29.050Z,2.47
2018-08-22T12:16:45.741Z,2.20
2018-08-22T12:29:03.947Z,2.30
2018-08-22T12:46:16.266Z,2.33
2018-08-22T12:48:44.114Z,2.10
2018-08-22T12:51:11.941Z,2.30
2018-08-22T13:05:55.551Z,2.30
2018-08-22T13:08:23.434Z,2.23
2018-08-22T13:20:39.785Z,2.10
2018-08-22T13:23:07.696Z,2.10
2018-08-22T13:30:29.977Z,2.10
2018-08-22T13:32:57.875Z,2.23
2018-08-22T13:35:25.689Z,1.90
2018-08-22T13:42:47.927Z,1.80
2018-08-22T13:45:15.805Z,1.90
2018-08-22T13:47:43.675Z,1.80
2018-08-22T13:55:05.837Z,2.42
2018-08-22T13:57:33.664Z,1.70
2018-08-22T14:00:01.541Z,1.77
2018-08-22T14:02:29.441Z,2.08
2018-08-22T14:04:57.276Z,1.90
2018-08-22T14:07:25.238Z,1.98
2018-08-22T14:09:53.179Z,2.00
2018-08-22T14:12:21.005Z,1.82
2018-08-22T14:14:48.873Z,1.90
2018-08-22T14:17:16.778Z,1.70
2018-08-22T17:23:48.743Z,2.50
2018-08-22T17:26:17.826Z,2.60
2018-08-22T17:28:47.560Z,2.70
2018-08-22T17:31:16.021Z,3.17
2018-08-22T17:33:48.530Z,3.00
2018-08-22T17:36:16.440Z,3.40
2018-08-22T17:38:44.916Z,3.20
2018-08-22T17:41:13.190Z,3.10
2018-08-22T17:43:54.099Z,3.27
2018-08-22T17:46:22.850Z,3.10
2018-08-22T17:48:50.817Z,3.20
2018-08-22T17:51:18.719Z,3.03
2018-08-22T17:53:46.653Z,2.70
2018-08-22T17:56:14.539Z,5.70
2018-08-22T17:58:42.452Z,4.97
2018-08-22T18:01:10.358Z,8.63
2018-08-22T18:03:38.449Z,11.47
2018-08-22T18:06:06.348Z,11.83
2018-08-22T18:08:34.233Z,9.90
2018-08-22T18:11:02.157Z,9.33
2018-08-22T18:13:30.069Z,7.67
2018-08-22T18:20:52.313Z,6.40
2018-08-22T18:28:23.359Z,5.87
2018-08-22T18:30:51.358Z,4.75
2018-08-22T18:33:19.229Z,4.90
2018-08-22T18:35:47.142Z,4.10
2018-08-22T18:43:09.750Z,4.45
2018-08-22T18:45:43.390Z,4.17
2018-08-22T18:48:11.276Z,4.77
2018-08-22T18:50:39.198Z,4.80
2018-08-22T18:53:07.069Z,5.00
2018-08-22T18:55:35.446Z,6.35
2018-08-22T18:58:05.468Z,4.93
2018-08-22T19:00:34.680Z,4.17
2018-08-22T19:03:02.775Z,4.03
2018-08-22T19:05:32.974Z,4.20
2018-08-22T19:08:07.942Z,5.00
2018-08-22T19:10:37.790Z,4.60
2018-08-22T19:13:10.024Z,5.67
2018-08-22T19:15:38.067Z,5.33
2018-08-22T19:18:07.529Z,5.70
2018-08-22T19:20:35.631Z,5.33
2018-08-22T19:23:03.582Z,5.10
2018-08-22T19:25:31.573Z,5.87
2018-08-22T19:27:59.949Z,5.60
2018-08-22T19:30:27.824Z,5.40
2018-08-22T19:32:55.644Z,5.53
2018-08-22T19:35:23.510Z,5.50
2018-08-22T19:37:55.810Z,5.30
2018-08-22T19:40:25.156Z,5.30
2018-08-22T19:42:53.039Z,6.77
2018-08-22T19:45:21.001Z,5.40
2018-08-22T19:47:48.942Z,5.27
2018-08-22T19:50:16.847Z,5.70
2018-08-22T19:52:44.827Z,6.30
2018-08-22T19:55:12.685Z,7.53
2018-08-22T19:57:41.835Z,5.17
2018-08-22T20:05:04.766Z,5.20
2018-08-22T20:07:32.704Z,5.90
2018-08-22T20:10:00.585Z,6.10
2018-08-22T20:12:34.069Z,5.45
2018-08-22T20:15:02.040Z,5.50
2018-08-22T20:19:59.598Z,6.13
2018-08-22T20:30:01.121Z,5.85
2018-08-22T20:32:29.900Z,5.80
2018-08-22T20:34:58.430Z,5.90
2018-08-22T20:37:26.270Z,5.87
2018-08-22T20:39:59.858Z,5.60
2018-08-22T20:43:31.963Z,4.50
2018-08-22T20:45:59.848Z,5.10
2018-08-22T20:48:27.734Z,5.07
2018-08-22T20:50:55.617Z,6.10
2018-08-22T20:53:24.606Z,5.10
2018-08-22T20:55:52.465Z,5.10
2018-08-22T20:58:22.304Z,5.77
2018-08-22T21:00:50.294Z,5.90
2018-08-22T21:03:18.359Z,5.40
2018-08-22T21:05:46.339Z,5.93
2018-08-22T21:08:14.242Z,5.60
2018-08-22T21:10:42.147Z,5.03
2018-08-22T21:13:15.342Z,5.40
2018-08-22T21:15:43.201Z,5.03
2018-08-22T21:18:11.058Z,5.73
2018-08-22T21:20:38.942Z,5.80
2018-08-22T21:23:06.740Z,4.90
2018-08-22T21:25:34.658Z,4.90
2018-08-22T21:28:02.562Z,5.40
2018-08-22T21:30:30.535Z,5.10
2018-08-22T21:32:58.423Z,4.70
2018-08-22T22:07:30.637Z,4.60
2018-08-22T22:10:04.073Z,5.00
2018-08-22T22:12:36.096Z,4.60
2018-08-22T22:15:04.669Z,4.80
2018-08-22T22:17:32.503Z,5.27
2018-08-22T22:20:00.408Z,4.80
2018-08-22T22:22:28.267Z,5.20
2018-08-22T22:25:01.623Z,5.70
2018-08-22T22:27:29.496Z,6.15
2018-08-22T22:29:59.275Z,6.20
2018-08-22T22:32:27.279Z,5.20
2018-08-22T22:34:55.208Z,5.23
2018-08-22T22:37:23.098Z,5.47
2018-08-22T22:39:51.000Z,5.20
2018-08-22T22:42:25.744Z,5.83
2018-08-22T22:44:54.300Z,5.73
2018-08-22T22:47:27.642Z,6.20
2018-08-22T22:49:56.030Z,5.43
2018-08-22T22:52:25.617Z,4.97
2018-08-22T22:54:56.388Z,6.07
2018-08-22T22:57:24.561Z,5.37
2018-08-22T22:59:52.949Z,5.57
2018-08-22T23:02:22.467Z,5.53
2018-08-22T23:04:51.462Z,5.70
2018-08-22T23:07:23.681Z,5.60
2018-08-22T23:09:53.534Z,5.35
2018-08-22T23:12:28.881Z,5.57
2018-08-22T23:14:57.042Z,5.80
2018-08-22T23:17:25.787Z,6.00
2018-08-22T23:20:03.870Z,6.17
2018-08-22T23:22:31.786Z,6.20
2018-08-22T23:24:59.680Z,5.90
2018-08-22T23:27:27.610Z,6.20
2018-08-22T23:29:55.413Z,7.17
2018-08-22T23:32:23.388Z,6.40
2018-08-22T23:34:51.282Z,5.97
2018-08-22T23:37:19.138Z,6.10
2018-08-22T23:39:46.984Z,6.03
2018-08-22T23:42:14.908Z,6.30
2018-08-22T23:44:43.912Z,6.83
2018-08-22T23:47:11.778Z,5.60
2018-08-22T23:49:44.109Z,5.70
2018-08-22T23:52:12.055Z,5.90
2018-08-22T23:54:44.586Z,6.10
2018-08-22T23:57:14.920Z,6.20
2018-08-22T23:59:42.782Z,5.70
